SAS415 EKCH-EDDH
Flight info
| Callsign | SAS415 |
|---|---|
| Flight time | 1h 12m |
| Altitude | 24000 |
| Route | NEXEN2A NEXEN T503 MICOS/N0437F280 N850 BOGMU BOGMU5A |
| Aircraft | A320/M-SDE3FGHIRWY/LB1 |
Departure
| Time | 2026-04-30 19:14 |
|---|---|
| Airport | Copenhagen Kastrup Airport (EKCH) |
Arrival
| Time | 2026-04-30 20:27 |
|---|---|
| Airport | Hamburg Helmut Schmidt Airport (EDDH) |
| Time | Latitude | Longitude | Altitude | Speed | Heading |
|---|---|---|---|---|---|
| 2026-04-30 18:55 | 55.62559 | 12.64897 | 22 ft | 0 kts | 64° |
| 2026-04-30 19:04 | 55.62546 | 12.64850 | 25 ft | 2 kts | 64° |
| 2026-04-30 19:05 | 55.62544 | 12.64800 | 20 ft | 0 kts | 156° |
| 2026-04-30 19:07 | 55.62543 | 12.64799 | 20 ft | 1 kts | 168° |
| 2026-04-30 19:08 | 55.62516 | 12.64796 | 20 ft | 0 kts | 184° |
| 2026-04-30 19:08 | 55.62489 | 12.64792 | 21 ft | 15 kts | 185° |
| 2026-04-30 19:09 | 55.62262 | 12.64795 | 24 ft | 14 kts | 174° |
| 2026-04-30 19:09 | 55.62172 | 12.64729 | 23 ft | 15 kts | 214° |
| 2026-04-30 19:09 | 55.62056 | 12.64592 | 20 ft | 25 kts | 212° |
| 2026-04-30 19:10 | 55.61742 | 12.64561 | 19 ft | 22 kts | 168° |
| 2026-04-30 19:10 | 55.61491 | 12.64352 | 19 ft | 21 kts | 212° |
| 2026-04-30 19:11 | 55.61363 | 12.64209 | 19 ft | 23 kts | 214° |
| 2026-04-30 19:11 | 55.61077 | 12.63877 | 20 ft | 26 kts | 213° |
| 2026-04-30 19:11 | 55.60925 | 12.63702 | 21 ft | 27 kts | 212° |
| 2026-04-30 19:12 | 55.60762 | 12.63515 | 21 ft | 29 kts | 213° |
| 2026-04-30 19:12 | 55.60604 | 12.63315 | 20 ft | 27 kts | 220° |
| 2026-04-30 19:12 | 55.60512 | 12.63172 | 23 ft | 14 kts | 221° |
| 2026-04-30 19:13 | 55.60375 | 12.63207 | 26 ft | 12 kts | 130° |
| 2026-04-30 19:13 | 55.60363 | 12.63391 | 29 ft | 8 kts | 46° |
| 2026-04-30 19:13 | 55.60438 | 12.63506 | 26 ft | 36 kts | 41° |
| 2026-04-30 19:14 | 55.60829 | 12.64110 | 27 ft | 109 kts | 41° |
| 2026-04-30 19:14 | 55.61550 | 12.65220 | 50 ft | 160 kts | 39° |
| 2026-04-30 19:14 | 55.62424 | 12.66568 | 658 ft | 168 kts | 39° |
| 2026-04-30 19:14 | 55.63288 | 12.67911 | 1385 ft | 171 kts | 37° |
| 2026-04-30 19:15 | 55.64248 | 12.69389 | 1852 ft | 195 kts | 37° |
| 2026-04-30 19:15 | 55.66558 | 12.72887 | 2878 ft | 243 kts | 38° |
| 2026-04-30 19:15 | 55.67883 | 12.74861 | 3682 ft | 253 kts | 39° |
| 2026-04-30 19:16 | 55.69103 | 12.77157 | 4633 ft | 259 kts | 57° |
| 2026-04-30 19:16 | 55.69745 | 12.80153 | 5633 ft | 264 kts | 80° |
| 2026-04-30 19:16 | 55.68820 | 12.86403 | 7573 ft | 279 kts | 127° |
| 2026-04-30 19:17 | 55.67244 | 12.88493 | 8477 ft | 290 kts | 155° |
| 2026-04-30 19:17 | 55.63271 | 12.87859 | 10230 ft | 305 kts | 215° |
| 2026-04-30 19:17 | 55.61607 | 12.85426 | 10793 ft | 321 kts | 221° |
| 2026-04-30 19:18 | 55.59286 | 12.81770 | 11187 ft | 353 kts | 222° |
| 2026-04-30 19:18 | 55.56117 | 12.76745 | 12076 ft | 373 kts | 222° |
| 2026-04-30 19:18 | 55.54162 | 12.73662 | 12789 ft | 379 kts | 221° |
| 2026-04-30 19:19 | 55.52175 | 12.70552 | 13513 ft | 385 kts | 221° |
| 2026-04-30 19:19 | 55.50149 | 12.67402 | 14225 ft | 391 kts | 221° |
| 2026-04-30 19:19 | 55.46044 | 12.61030 | 15540 ft | 399 kts | 221° |
| 2026-04-30 19:20 | 55.43945 | 12.57777 | 16211 ft | 403 kts | 221° |
| 2026-04-30 19:20 | 55.41830 | 12.54505 | 16878 ft | 407 kts | 221° |
| 2026-04-30 19:20 | 55.37543 | 12.47890 | 18192 ft | 414 kts | 222° |
| 2026-04-30 19:21 | 55.35369 | 12.44538 | 18816 ft | 417 kts | 222° |
| 2026-04-30 19:21 | 55.30968 | 12.37774 | 19914 ft | 423 kts | 222° |
| 2026-04-30 19:22 | 55.26497 | 12.30935 | 21026 ft | 429 kts | 222° |
| 2026-04-30 19:22 | 55.19677 | 12.20521 | 22599 ft | 438 kts | 222° |
| 2026-04-30 19:23 | 55.13510 | 12.11149 | 23968 ft | 444 kts | 222° |
| 2026-04-30 19:24 | 55.08820 | 12.04049 | 24412 ft | 446 kts | 222° |
| 2026-04-30 19:24 | 55.06468 | 12.00502 | 24441 ft | 446 kts | 222° |
| 2026-04-30 19:24 | 55.01779 | 11.93437 | 24438 ft | 446 kts | 222° |
| 2026-04-30 19:25 | 54.94731 | 11.82858 | 24438 ft | 446 kts | 222° |
| 2026-04-30 19:26 | 54.90017 | 11.75825 | 24441 ft | 446 kts | 221° |
| 2026-04-30 19:26 | 54.85336 | 11.68857 | 24439 ft | 446 kts | 221° |
| 2026-04-30 19:26 | 54.82981 | 11.65357 | 24438 ft | 446 kts | 221° |
| 2026-04-30 19:27 | 54.78169 | 11.58561 | 24441 ft | 447 kts | 218° |
| 2026-04-30 19:27 | 54.73105 | 11.52304 | 24446 ft | 447 kts | 215° |
| 2026-04-30 19:28 | 54.70545 | 11.49254 | 24441 ft | 447 kts | 215° |
| 2026-04-30 19:28 | 54.65437 | 11.43087 | 24447 ft | 447 kts | 216° |
| 2026-04-30 19:29 | 54.60378 | 11.36832 | 24446 ft | 447 kts | 217° |
| 2026-04-30 19:29 | 54.57857 | 11.33700 | 24391 ft | 446 kts | 216° |
| 2026-04-30 19:30 | 54.50257 | 11.24330 | 21882 ft | 449 kts | 216° |
| 2026-04-30 19:30 | 54.45148 | 11.18138 | 20225 ft | 449 kts | 215° |
| 2026-04-30 19:31 | 54.40034 | 11.11970 | 18641 ft | 448 kts | 215° |
| 2026-04-30 19:31 | 54.37528 | 11.08945 | 17758 ft | 440 kts | 214° |
| 2026-04-30 19:31 | 54.32715 | 11.03129 | 16580 ft | 409 kts | 216° |
| 2026-04-30 19:32 | 54.30565 | 11.00008 | 16431 ft | 403 kts | 224° |
| 2026-04-30 19:32 | 54.28712 | 10.96411 | 16443 ft | 402 kts | 232° |
| 2026-04-30 19:32 | 54.27022 | 10.92635 | 16444 ft | 393 kts | 232° |
| 2026-04-30 19:32 | 54.25387 | 10.89005 | 16450 ft | 376 kts | 232° |
| 2026-04-30 19:33 | 54.23822 | 10.85550 | 16449 ft | 360 kts | 232° |
| 2026-04-30 19:33 | 54.22316 | 10.82236 | 16450 ft | 345 kts | 232° |
| 2026-04-30 19:33 | 54.20873 | 10.79062 | 16448 ft | 332 kts | 232° |
| 2026-04-30 19:33 | 54.19487 | 10.76003 | 16449 ft | 321 kts | 232° |
| 2026-04-30 19:34 | 54.18129 | 10.73003 | 16451 ft | 317 kts | 232° |
| 2026-04-30 19:34 | 54.16780 | 10.70030 | 16447 ft | 317 kts | 232° |
| 2026-04-30 19:34 | 54.14079 | 10.64094 | 16447 ft | 316 kts | 232° |
| 2026-04-30 19:35 | 54.12727 | 10.61129 | 16451 ft | 316 kts | 231° |
| 2026-04-30 19:35 | 54.11382 | 10.58184 | 16451 ft | 314 kts | 231° |
| 2026-04-30 19:35 | 54.10038 | 10.55250 | 16456 ft | 314 kts | 231° |
| 2026-04-30 19:35 | 54.08714 | 10.52357 | 16418 ft | 313 kts | 231° |
| 2026-04-30 19:36 | 54.07359 | 10.49395 | 16162 ft | 312 kts | 231° |
| 2026-04-30 19:36 | 54.06046 | 10.46525 | 15916 ft | 311 kts | 231° |
| 2026-04-30 19:36 | 54.03387 | 10.40736 | 15431 ft | 309 kts | 231° |
| 2026-04-30 19:37 | 54.02058 | 10.37859 | 15179 ft | 308 kts | 230° |
| 2026-04-30 19:37 | 54.00736 | 10.34999 | 14939 ft | 307 kts | 230° |
| 2026-04-30 19:37 | 53.99416 | 10.32145 | 14704 ft | 306 kts | 230° |
| 2026-04-30 19:37 | 53.98103 | 10.29301 | 14504 ft | 305 kts | 231° |
| 2026-04-30 19:38 | 53.97065 | 10.26176 | 14434 ft | 305 kts | 253° |
| 2026-04-30 19:38 | 53.96826 | 10.22621 | 14447 ft | 304 kts | 278° |
| 2026-04-30 19:38 | 53.97411 | 10.19213 | 14446 ft | 300 kts | 302° |
| 2026-04-30 19:38 | 53.98684 | 10.16480 | 14446 ft | 293 kts | 324° |
| 2026-04-30 19:39 | 54.00417 | 10.14790 | 14449 ft | 285 kts | 346° |
| 2026-04-30 19:39 | 54.02345 | 10.14302 | 14445 ft | 278 kts | 7° |
| 2026-04-30 19:39 | 54.04199 | 10.14999 | 14452 ft | 271 kts | 27° |
| 2026-04-30 19:39 | 54.05759 | 10.16723 | 14447 ft | 267 kts | 46° |
| 2026-04-30 19:40 | 54.06998 | 10.19067 | 14448 ft | 266 kts | 52° |
| 2026-04-30 19:40 | 54.08140 | 10.21548 | 14447 ft | 266 kts | 54° |
| 2026-04-30 19:40 | 54.09250 | 10.24080 | 14448 ft | 266 kts | 55° |
| 2026-04-30 19:40 | 54.10352 | 10.26616 | 14449 ft | 266 kts | 54° |
| 2026-04-30 19:41 | 54.11461 | 10.29152 | 14449 ft | 266 kts | 55° |
| 2026-04-30 19:41 | 54.12314 | 10.31882 | 14448 ft | 265 kts | 72° |
| 2026-04-30 19:41 | 54.12601 | 10.34977 | 14452 ft | 266 kts | 90° |
| 2026-04-30 19:41 | 54.12251 | 10.38071 | 14452 ft | 269 kts | 109° |
| 2026-04-30 19:42 | 54.11281 | 10.40805 | 14450 ft | 274 kts | 129° |
| 2026-04-30 19:42 | 54.09775 | 10.42832 | 14454 ft | 281 kts | 149° |
| 2026-04-30 19:42 | 54.07904 | 10.43833 | 14453 ft | 288 kts | 171° |
| 2026-04-30 19:42 | 54.05888 | 10.43584 | 14435 ft | 294 kts | 192° |
| 2026-04-30 19:43 | 54.04043 | 10.42043 | 14196 ft | 300 kts | 216° |
| 2026-04-30 19:43 | 54.02598 | 10.39480 | 13943 ft | 301 kts | 229° |
| 2026-04-30 19:43 | 54.01297 | 10.36696 | 13690 ft | 301 kts | 231° |
| 2026-04-30 19:44 | 53.98802 | 10.31026 | 13440 ft | 299 kts | 232° |
| 2026-04-30 19:44 | 53.97582 | 10.28142 | 13444 ft | 300 kts | 239° |
| 2026-04-30 19:44 | 53.96894 | 10.24821 | 13447 ft | 300 kts | 264° |
| 2026-04-30 19:44 | 53.97028 | 10.21317 | 13448 ft | 297 kts | 289° |
| 2026-04-30 19:45 | 53.97939 | 10.18220 | 13449 ft | 292 kts | 312° |
| 2026-04-30 19:45 | 53.99446 | 10.15995 | 13448 ft | 285 kts | 335° |
| 2026-04-30 19:45 | 54.01283 | 10.14925 | 13447 ft | 277 kts | 357° |
| 2026-04-30 19:45 | 54.03177 | 10.15085 | 13450 ft | 271 kts | 18° |
| 2026-04-30 19:46 | 54.04849 | 10.16346 | 13450 ft | 265 kts | 38° |
| 2026-04-30 19:46 | 54.06182 | 10.18476 | 13449 ft | 263 kts | 51° |
| 2026-04-30 19:46 | 54.07343 | 10.20888 | 13444 ft | 263 kts | 54° |
| 2026-04-30 19:46 | 54.08449 | 10.23377 | 13447 ft | 264 kts | 55° |
| 2026-04-30 19:47 | 54.09539 | 10.25884 | 13447 ft | 264 kts | 55° |
| 2026-04-30 19:47 | 54.10278 | 10.27583 | 13447 ft | 264 kts | 54° |
| 2026-04-30 19:47 | 54.11635 | 10.30994 | 13451 ft | 262 kts | 66° |
| 2026-04-30 19:47 | 54.12131 | 10.33961 | 13267 ft | 260 kts | 84° |
| 2026-04-30 19:48 | 54.11992 | 10.37023 | 12944 ft | 261 kts | 104° |
| 2026-04-30 19:48 | 54.11221 | 10.39825 | 12626 ft | 264 kts | 123° |
| 2026-04-30 19:48 | 54.09902 | 10.42010 | 12445 ft | 269 kts | 144° |
| 2026-04-30 19:48 | 54.08180 | 10.43291 | 12447 ft | 276 kts | 164° |
| 2026-04-30 19:49 | 54.06250 | 10.43432 | 12450 ft | 282 kts | 186° |
| 2026-04-30 19:49 | 54.02904 | 10.40005 | 12452 ft | 292 kts | 231° |
| 2026-04-30 19:49 | 54.01686 | 10.37233 | 12449 ft | 293 kts | 231° |
| 2026-04-30 19:50 | 54.00446 | 10.34459 | 12453 ft | 293 kts | 231° |
| 2026-04-30 19:50 | 53.99203 | 10.31705 | 12449 ft | 294 kts | 231° |
| 2026-04-30 19:50 | 53.97961 | 10.28951 | 12443 ft | 294 kts | 232° |
| 2026-04-30 19:50 | 53.97055 | 10.25857 | 12447 ft | 294 kts | 256° |
| 2026-04-30 19:51 | 53.96953 | 10.22466 | 12449 ft | 293 kts | 282° |
| 2026-04-30 19:51 | 53.97674 | 10.19240 | 12448 ft | 288 kts | 307° |
| 2026-04-30 19:51 | 53.99026 | 10.16865 | 12450 ft | 282 kts | 330° |
| 2026-04-30 19:51 | 54.00818 | 10.15561 | 12443 ft | 275 kts | 353° |
| 2026-04-30 19:52 | 54.02672 | 10.15497 | 12455 ft | 268 kts | 14° |
| 2026-04-30 19:52 | 54.04393 | 10.16581 | 12447 ft | 263 kts | 35° |
| 2026-04-30 19:52 | 54.05749 | 10.18614 | 12452 ft | 260 kts | 51° |
| 2026-04-30 19:52 | 54.06899 | 10.20992 | 12447 ft | 260 kts | 53° |
| 2026-04-30 19:53 | 54.07994 | 10.23450 | 12445 ft | 261 kts | 54° |
| 2026-04-30 19:53 | 54.09076 | 10.25934 | 12446 ft | 261 kts | 55° |
| 2026-04-30 19:53 | 54.10157 | 10.28415 | 12450 ft | 261 kts | 54° |
| 2026-04-30 19:53 | 54.11172 | 10.30972 | 12445 ft | 260 kts | 65° |
| 2026-04-30 19:54 | 54.11677 | 10.33911 | 12444 ft | 259 kts | 84° |
| 2026-04-30 19:54 | 54.11535 | 10.36965 | 12449 ft | 261 kts | 104° |
| 2026-04-30 19:54 | 54.10747 | 10.39758 | 12442 ft | 265 kts | 124° |
| 2026-04-30 19:54 | 54.09393 | 10.41915 | 12452 ft | 271 kts | 146° |
| 2026-04-30 19:55 | 54.07626 | 10.43074 | 12456 ft | 277 kts | 168° |
| 2026-04-30 19:55 | 54.05688 | 10.42989 | 12454 ft | 284 kts | 191° |
| 2026-04-30 19:55 | 54.03890 | 10.41591 | 12457 ft | 289 kts | 215° |
| 2026-04-30 19:55 | 54.02505 | 10.39094 | 12452 ft | 293 kts | 231° |
| 2026-04-30 19:56 | 54.01273 | 10.36337 | 12455 ft | 293 kts | 231° |
| 2026-04-30 19:56 | 54.00033 | 10.33574 | 12453 ft | 293 kts | 231° |
| 2026-04-30 19:56 | 53.98795 | 10.30824 | 12239 ft | 292 kts | 231° |
| 2026-04-30 19:56 | 53.97591 | 10.28043 | 11986 ft | 292 kts | 239° |
| 2026-04-30 19:57 | 53.96940 | 10.24820 | 11737 ft | 290 kts | 265° |
| 2026-04-30 19:57 | 53.97106 | 10.21501 | 11519 ft | 285 kts | 290° |
| 2026-04-30 19:57 | 53.98031 | 10.18577 | 11433 ft | 280 kts | 314° |
| 2026-04-30 19:57 | 53.99520 | 10.16521 | 11445 ft | 275 kts | 336° |
| 2026-04-30 19:58 | 54.01318 | 10.15584 | 11447 ft | 269 kts | 359° |
| 2026-04-30 19:58 | 54.03150 | 10.15863 | 11450 ft | 263 kts | 20° |
| 2026-04-30 19:58 | 54.04762 | 10.17258 | 11447 ft | 259 kts | 41° |
| 2026-04-30 19:58 | 54.06014 | 10.19439 | 11449 ft | 257 kts | 52° |
| 2026-04-30 19:59 | 54.07131 | 10.21823 | 11445 ft | 258 kts | 54° |
| 2026-04-30 19:59 | 54.08209 | 10.24268 | 11447 ft | 258 kts | 54° |
| 2026-04-30 19:59 | 54.10350 | 10.29188 | 11447 ft | 259 kts | 54° |
| 2026-04-30 20:00 | 54.11250 | 10.31818 | 11449 ft | 257 kts | 70° |
| 2026-04-30 20:00 | 54.11578 | 10.34793 | 11452 ft | 257 kts | 90° |
| 2026-04-30 20:00 | 54.11253 | 10.37787 | 11452 ft | 259 kts | 110° |
| 2026-04-30 20:00 | 54.10302 | 10.40404 | 11452 ft | 263 kts | 131° |
| 2026-04-30 20:01 | 54.07010 | 10.43072 | 11450 ft | 274 kts | 174° |
| 2026-04-30 20:01 | 54.05112 | 10.42631 | 11451 ft | 280 kts | 198° |
| 2026-04-30 20:01 | 54.03434 | 10.40942 | 11452 ft | 285 kts | 221° |
| 2026-04-30 20:02 | 54.00886 | 10.35729 | 11451 ft | 288 kts | 231° |
| 2026-04-30 20:02 | 53.99686 | 10.33005 | 11451 ft | 288 kts | 232° |
| 2026-04-30 20:03 | 53.97384 | 10.27455 | 11443 ft | 288 kts | 245° |
| 2026-04-30 20:03 | 53.96932 | 10.24158 | 11446 ft | 288 kts | 271° |
| 2026-04-30 20:03 | 53.97303 | 10.20858 | 11447 ft | 285 kts | 296° |
| 2026-04-30 20:03 | 53.98408 | 10.18135 | 11447 ft | 279 kts | 321° |
| 2026-04-30 20:04 | 54.00026 | 10.16414 | 11447 ft | 273 kts | 344° |
| 2026-04-30 20:04 | 54.01869 | 10.15918 | 11447 ft | 267 kts | 7° |
| 2026-04-30 20:04 | 54.03644 | 10.16642 | 11447 ft | 261 kts | 28° |
| 2026-04-30 20:05 | 54.06275 | 10.20724 | 11449 ft | 257 kts | 53° |
| 2026-04-30 20:05 | 54.07369 | 10.23135 | 11446 ft | 258 kts | 54° |
| 2026-04-30 20:05 | 54.09499 | 10.28074 | 11446 ft | 258 kts | 60° |
| 2026-04-30 20:06 | 54.10032 | 10.30941 | 11445 ft | 257 kts | 88° |
| 2026-04-30 20:06 | 54.09661 | 10.33896 | 11447 ft | 260 kts | 116° |
| 2026-04-30 20:06 | 54.08466 | 10.36202 | 11448 ft | 266 kts | 144° |
| 2026-04-30 20:06 | 54.06725 | 10.37289 | 11451 ft | 272 kts | 169° |
| 2026-04-30 20:07 | 54.04850 | 10.37554 | 11435 ft | 274 kts | 173° |
| 2026-04-30 20:07 | 54.02949 | 10.37698 | 11153 ft | 273 kts | 174° |
| 2026-04-30 20:07 | 53.99170 | 10.37950 | 10536 ft | 270 kts | 174° |
| 2026-04-30 20:08 | 53.97294 | 10.38079 | 10223 ft | 269 kts | 174° |
| 2026-04-30 20:08 | 53.95431 | 10.38207 | 9885 ft | 268 kts | 174° |
| 2026-04-30 20:08 | 53.93573 | 10.38332 | 9548 ft | 266 kts | 174° |
| 2026-04-30 20:08 | 53.91731 | 10.38451 | 9210 ft | 264 kts | 174° |
| 2026-04-30 20:09 | 53.89901 | 10.38568 | 8871 ft | 263 kts | 174° |
| 2026-04-30 20:09 | 53.88078 | 10.38681 | 8526 ft | 261 kts | 174° |
| 2026-04-30 20:09 | 53.84473 | 10.38894 | 7835 ft | 257 kts | 174° |
| 2026-04-30 20:10 | 53.80915 | 10.39088 | 7401 ft | 254 kts | 174° |
| 2026-04-30 20:10 | 53.79152 | 10.39180 | 7056 ft | 253 kts | 174° |
| 2026-04-30 20:10 | 53.77393 | 10.39265 | 6697 ft | 252 kts | 174° |
| 2026-04-30 20:11 | 53.74502 | 10.39416 | 6097 ft | 249 kts | 174° |
| 2026-04-30 20:11 | 53.72779 | 10.39512 | 5742 ft | 247 kts | 176° |
| 2026-04-30 20:11 | 53.71105 | 10.38901 | 5337 ft | 252 kts | 203° |
| 2026-04-30 20:12 | 53.68626 | 10.34673 | 4997 ft | 254 kts | 229° |
| 2026-04-30 20:12 | 53.67522 | 10.32343 | 4997 ft | 254 kts | 229° |
| 2026-04-30 20:12 | 53.66421 | 10.30008 | 5001 ft | 254 kts | 229° |
| 2026-04-30 20:13 | 53.65322 | 10.27675 | 5003 ft | 254 kts | 229° |
| 2026-04-30 20:13 | 53.64223 | 10.25342 | 5005 ft | 254 kts | 229° |
| 2026-04-30 20:13 | 53.63142 | 10.23042 | 5003 ft | 246 kts | 229° |
| 2026-04-30 20:13 | 53.62088 | 10.20797 | 5009 ft | 244 kts | 229° |
| 2026-04-30 20:14 | 53.61033 | 10.18552 | 5008 ft | 244 kts | 229° |
| 2026-04-30 20:14 | 53.59991 | 10.16341 | 5009 ft | 244 kts | 229° |
| 2026-04-30 20:14 | 53.58936 | 10.14102 | 5011 ft | 244 kts | 229° |
| 2026-04-30 20:14 | 53.57883 | 10.11868 | 5010 ft | 244 kts | 229° |
| 2026-04-30 20:15 | 53.56829 | 10.09633 | 5015 ft | 244 kts | 229° |
| 2026-04-30 20:15 | 53.55778 | 10.07394 | 5015 ft | 244 kts | 229° |
| 2026-04-30 20:15 | 53.54733 | 10.05152 | 5013 ft | 244 kts | 229° |
| 2026-04-30 20:15 | 53.53686 | 10.02911 | 5011 ft | 244 kts | 229° |
| 2026-04-30 20:16 | 53.52640 | 10.00671 | 5010 ft | 244 kts | 229° |
| 2026-04-30 20:16 | 53.51595 | 9.98433 | 5014 ft | 244 kts | 229° |
| 2026-04-30 20:16 | 53.50548 | 9.96192 | 5010 ft | 244 kts | 229° |
| 2026-04-30 20:16 | 53.49503 | 9.93953 | 5010 ft | 244 kts | 229° |
| 2026-04-30 20:17 | 53.48457 | 9.91716 | 5014 ft | 244 kts | 229° |
| 2026-04-30 20:17 | 53.47414 | 9.89479 | 5011 ft | 243 kts | 229° |
| 2026-04-30 20:17 | 53.46367 | 9.87240 | 5014 ft | 244 kts | 229° |
| 2026-04-30 20:17 | 53.45322 | 9.85005 | 5010 ft | 244 kts | 229° |
| 2026-04-30 20:18 | 53.44273 | 9.82764 | 5008 ft | 244 kts | 229° |
| 2026-04-30 20:18 | 53.43223 | 9.80523 | 4985 ft | 244 kts | 229° |
| 2026-04-30 20:18 | 53.42174 | 9.78286 | 4988 ft | 244 kts | 229° |
| 2026-04-30 20:18 | 53.41127 | 9.76053 | 4987 ft | 244 kts | 229° |
| 2026-04-30 20:19 | 53.40079 | 9.73818 | 4986 ft | 244 kts | 229° |
| 2026-04-30 20:19 | 53.39031 | 9.71586 | 4982 ft | 244 kts | 229° |
| 2026-04-30 20:19 | 53.37983 | 9.69356 | 4979 ft | 244 kts | 230° |
| 2026-04-30 20:19 | 53.37218 | 9.66844 | 4795 ft | 244 kts | 257° |
| 2026-04-30 20:20 | 53.37303 | 9.64044 | 4467 ft | 243 kts | 290° |
| 2026-04-30 20:20 | 53.38177 | 9.61710 | 4140 ft | 240 kts | 315° |
| 2026-04-30 20:20 | 53.39514 | 9.60101 | 3825 ft | 237 kts | 338° |
| 2026-04-30 20:20 | 53.41089 | 9.59431 | 3497 ft | 233 kts | 359° |
| 2026-04-30 20:21 | 53.42676 | 9.59751 | 3171 ft | 229 kts | 20° |
| 2026-04-30 20:21 | 53.44064 | 9.60990 | 3009 ft | 225 kts | 41° |
| 2026-04-30 20:21 | 53.45136 | 9.62886 | 3009 ft | 225 kts | 52° |
| 2026-04-30 20:21 | 53.46144 | 9.64900 | 3009 ft | 225 kts | 52° |
| 2026-04-30 20:22 | 53.47153 | 9.66912 | 3011 ft | 225 kts | 52° |
| 2026-04-30 20:22 | 53.48161 | 9.68925 | 3014 ft | 225 kts | 52° |
| 2026-04-30 20:22 | 53.49171 | 9.70942 | 3010 ft | 225 kts | 52° |
| 2026-04-30 20:22 | 53.50179 | 9.72960 | 3013 ft | 225 kts | 52° |
| 2026-04-30 20:23 | 53.51186 | 9.74975 | 3010 ft | 225 kts | 52° |
| 2026-04-30 20:23 | 53.52173 | 9.76951 | 2981 ft | 216 kts | 52° |
| 2026-04-30 20:23 | 53.53120 | 9.78848 | 2771 ft | 206 kts | 52° |
| 2026-04-30 20:23 | 53.54012 | 9.80638 | 2522 ft | 194 kts | 52° |
| 2026-04-30 20:24 | 53.54856 | 9.82332 | 2281 ft | 185 kts | 52° |
| 2026-04-30 20:24 | 53.55672 | 9.83972 | 2020 ft | 181 kts | 52° |
| 2026-04-30 20:24 | 53.56477 | 9.85591 | 1767 ft | 180 kts | 53° |
| 2026-04-30 20:24 | 53.57265 | 9.87177 | 1532 ft | 177 kts | 53° |
| 2026-04-30 20:25 | 53.58703 | 9.90068 | 1099 ft | 145 kts | 52° |
| 2026-04-30 20:25 | 53.59336 | 9.91346 | 907 ft | 140 kts | 52° |
| 2026-04-30 20:26 | 53.60562 | 9.93820 | 534 ft | 136 kts | 51° |
| 2026-04-30 20:26 | 53.61775 | 9.96259 | 157 ft | 134 kts | 51° |
| 2026-04-30 20:26 | 53.62369 | 9.97456 | 46 ft | 128 kts | 51° |
| 2026-04-30 20:27 | 53.62954 | 9.98654 | 43 ft | 36 kts | 50° |
| 2026-04-30 20:27 | 53.63091 | 9.99146 | 44 ft | 0 kts | 94° |
| 2026-04-30 20:28 | 53.63091 | 9.99162 | 44 ft | 1 kts | 94° |
| 2026-04-30 20:28 | 53.63090 | 9.99186 | 44 ft | 1 kts | 94° |
| 2026-04-30 20:29 | 53.63087 | 9.99335 | 45 ft | 7 kts | 80° |
| 2026-04-30 20:30 | 53.63090 | 9.99359 | 45 ft | 0 kts | 74° |
| 2026-04-30 20:30 | 53.63208 | 9.99641 | 45 ft | 4 kts | 51° |
| 2026-04-30 20:31 | 53.63227 | 9.99709 | 45 ft | 3 kts | 82° |
| 2026-04-30 20:32 | 53.63041 | 9.99919 | 45 ft | 19 kts | 153° |
| 2026-04-30 20:32 | 53.62767 | 10.00138 | 46 ft | 23 kts | 153° |
| 2026-04-30 20:33 | 53.62709 | 10.00188 | 46 ft | 0 kts | 152° |
| 2026-04-30 20:33 | 53.62702 | 10.00292 | 46 ft | 12 kts | 76° |
| 2026-04-30 20:33 | 53.62714 | 10.00336 | 45 ft | 0 kts | 65° |